createdAt,value
2019-03-30T00:01:08.759Z,19.92
2019-03-30T00:03:40.913Z,19.20
2019-03-30T00:06:11.879Z,17.75
2019-03-30T00:08:42.860Z,17.73
2019-03-30T00:11:13.806Z,17.25
2019-03-30T00:13:44.840Z,15.65
2019-03-30T00:16:15.835Z,14.85
2019-03-30T00:18:47.356Z,19.70
2019-03-30T00:21:18.432Z,19.25
2019-03-30T00:23:49.575Z,17.87
2019-03-30T00:26:20.768Z,16.42
2019-03-30T00:28:52.786Z,18.40
2019-03-30T00:31:23.735Z,17.65
2019-03-30T00:33:54.787Z,15.68
2019-03-30T00:36:25.902Z,18.35
2019-03-30T00:38:57.027Z,18.95
2019-03-30T00:41:27.998Z,17.07
2019-03-30T00:43:58.942Z,18.07
2019-03-30T00:46:29.961Z,18.62
2019-03-30T00:49:00.978Z,19.92
2019-03-30T00:51:31.954Z,20.82
2019-03-30T00:54:02.895Z,18.37
2019-03-30T00:56:34.022Z,19.85
2019-03-30T00:59:04.973Z,18.35
2019-03-30T01:01:35.948Z,19.15
2019-03-30T01:04:06.988Z,18.73
2019-03-30T01:06:37.968Z,20.52
2019-03-30T01:09:09.719Z,22.62
2019-03-30T01:11:40.687Z,21.37
2019-03-30T01:14:11.729Z,19.35
2019-03-30T01:16:42.703Z,19.70
2019-03-30T01:19:13.650Z,16.60
2019-03-30T01:21:44.705Z,16.85
2019-03-30T01:24:15.693Z,18.07
2019-03-30T01:26:46.670Z,18.95
2019-03-30T01:29:17.651Z,17.25
2019-03-30T01:31:48.595Z,17.02
2019-03-30T01:34:19.619Z,15.98
2019-03-30T01:36:51.330Z,17.80
2019-03-30T01:39:22.373Z,15.65
2019-03-30T01:41:53.331Z,16.90
2019-03-30T01:44:24.301Z,18.40
2019-03-30T01:46:55.270Z,16.17
2019-03-30T01:49:26.239Z,17.00
2019-03-30T01:51:57.199Z,18.40
2019-03-30T01:54:28.183Z,18.57
2019-03-30T01:56:59.130Z,19.23
2019-03-30T01:59:30.112Z,19.05
2019-03-30T02:02:01.068Z,21.45
2019-03-30T02:04:32.042Z,20.57
2019-03-30T02:07:02.989Z,22.65
2019-03-30T02:09:33.973Z,20.65
2019-03-30T02:12:05.066Z,19.82
2019-03-30T02:14:36.064Z,19.42
2019-03-30T02:17:07.070Z,21.93
2019-03-30T02:19:38.026Z,21.68
2019-03-30T02:22:09.049Z,19.45
2019-03-30T02:24:40.087Z,20.17
2019-03-30T02:27:11.067Z,20.77
2019-03-30T02:29:42.029Z,21.95
2019-03-30T02:32:13.016Z,20.20
2019-03-30T02:34:43.986Z,21.17
2019-03-30T02:37:15.033Z,18.80
2019-03-30T02:39:46.061Z,19.25
2019-03-30T02:42:17.039Z,21.52
2019-03-30T02:44:47.997Z,21.73
2019-03-30T02:47:18.969Z,18.70
2019-03-30T02:49:49.935Z,19.20
2019-03-30T02:52:20.912Z,18.35
2019-03-30T02:54:51.957Z,19.20
2019-03-30T02:57:23.037Z,19.92
2019-03-30T02:59:55.024Z,18.07
2019-03-30T03:02:26.023Z,17.07
2019-03-30T03:04:57.024Z,17.85
2019-03-30T03:07:28.044Z,19.75
2019-03-30T03:09:59.033Z,18.48
2019-03-30T03:12:29.984Z,17.55
2019-03-30T03:15:00.963Z,18.82
2019-03-30T03:17:31.938Z,18.15
2019-03-30T03:20:02.989Z,17.12
2019-03-30T03:22:33.945Z,16.82
2019-03-30T03:25:06.653Z,18.07
2019-03-30T03:27:37.588Z,17.60
2019-03-30T03:30:09.038Z,17.00
2019-03-30T03:32:40.014Z,16.52
2019-03-30T03:35:11.157Z,16.95
2019-03-30T03:37:45.239Z,15.10
2019-03-30T03:40:14.888Z,15.83
2019-03-30T03:42:45.914Z,14.70
2019-03-30T03:45:16.979Z,16.05
2019-03-30T03:47:47.922Z,16.80
2019-03-30T03:50:41.639Z,14.90
2019-03-30T03:53:15.207Z,17.67
2019-03-30T03:55:47.089Z,17.35
2019-03-30T03:58:19.133Z,17.15
2019-03-30T04:00:52.103Z,17.10
2019-03-30T04:03:24.547Z,16.32
2019-03-30T04:05:58.794Z,17.15
2019-03-30T04:08:32.528Z,15.08
2019-03-30T04:11:04.266Z,16.93
2019-03-30T04:13:35.220Z,16.20
2019-03-30T04:16:06.533Z,15.65
2019-03-30T04:18:37.549Z,15.15
2019-03-30T04:21:08.583Z,13.80
2019-03-30T04:23:40.820Z,15.60
2019-03-30T04:26:11.824Z,15.28
2019-03-30T04:28:42.831Z,14.70
2019-03-30T04:31:13.873Z,16.30
2019-03-30T04:33:44.869Z,14.65
2019-03-30T04:36:15.858Z,13.90
2019-03-30T04:38:46.846Z,14.95
2019-03-30T04:41:17.799Z,14.90
2019-03-30T04:43:48.779Z,15.15
2019-03-30T04:46:19.729Z,15.30
2019-03-30T04:48:50.747Z,14.60
2019-03-30T04:51:21.710Z,13.53
2019-03-30T04:53:52.702Z,17.02
2019-03-30T04:56:23.711Z,16.90
2019-03-30T04:58:54.709Z,17.40
2019-03-30T05:01:25.663Z,17.32
2019-03-30T05:03:56.647Z,18.85
2019-03-30T05:06:27.599Z,18.82
2019-03-30T05:08:58.573Z,17.77
2019-03-30T05:11:29.518Z,17.90
2019-03-30T05:14:00.493Z,18.70
2019-03-30T05:16:31.452Z,16.80
2019-03-30T05:19:02.425Z,16.17
2019-03-30T05:21:33.418Z,17.15
2019-03-30T05:24:04.370Z,18.00
2019-03-30T05:26:35.353Z,15.48
2019-03-30T05:29:08.304Z,15.32
2019-03-30T05:31:39.287Z,15.53
2019-03-30T05:34:10.236Z,15.48
2019-03-30T05:36:41.301Z,16.15
2019-03-30T05:39:13.314Z,15.18
2019-03-30T05:41:44.352Z,14.47
2019-03-30T05:44:16.333Z,18.50
2019-03-30T05:46:47.308Z,17.75
2019-03-30T05:49:18.255Z,61.30
2019-03-30T05:51:49.234Z,36.73
2019-03-30T05:54:20.193Z,18.05
2019-03-30T05:56:51.175Z,15.45
2019-03-30T05:59:22.117Z,16.25
2019-03-30T06:01:53.093Z,14.30
2019-03-30T06:04:24.042Z,14.03
2019-03-30T06:06:55.018Z,15.15
2019-03-30T06:09:26.066Z,15.75
2019-03-30T06:11:57.049Z,54.65
2019-03-30T06:14:27.997Z,16.85
2019-03-30T06:16:58.968Z,17.45
2019-03-30T06:19:29.910Z,14.98
2019-03-30T06:22:00.894Z,11.57
2019-03-30T06:24:32.837Z,13.88
2019-03-30T06:27:03.809Z,10.88
2019-03-30T06:29:34.761Z,11.03
2019-03-30T06:32:05.740Z,9.45
2019-03-30T06:34:36.678Z,8.88
2019-03-30T06:37:07.638Z,9.05
2019-03-30T06:39:38.629Z,9.45
2019-03-30T06:42:09.576Z,9.83
2019-03-30T06:44:40.615Z,9.45
2019-03-30T06:47:11.551Z,9.90
2019-03-30T06:49:42.528Z,8.60
2019-03-30T06:52:13.465Z,13.30
2019-03-30T06:54:44.428Z,8.90
2019-03-30T06:57:15.397Z,11.28
2019-03-30T06:59:46.367Z,7.75
2019-03-30T07:02:17.500Z,7.37
2019-03-30T07:04:48.965Z,10.45
2019-03-30T07:07:20.499Z,8.60
2019-03-30T07:09:53.631Z,7.75
2019-03-30T07:12:25.839Z,7.70
2019-03-30T07:14:59.814Z,7.53
2019-03-30T07:17:31.641Z,8.35
2019-03-30T07:20:04.510Z,13.62
2019-03-30T07:22:35.441Z,6.92
2019-03-30T07:25:07.418Z,8.40
2019-03-30T07:27:39.445Z,7.87
2019-03-30T07:30:10.604Z,7.08
2019-03-30T07:32:41.542Z,10.90
2019-03-30T07:35:12.533Z,9.93
2019-03-30T07:37:43.531Z,6.78
2019-03-30T07:40:14.690Z,7.25
2019-03-30T07:42:45.713Z,11.57
2019-03-30T07:45:16.780Z,6.40
2019-03-30T07:47:47.748Z,10.05
2019-03-30T07:50:18.812Z,11.88
2019-03-30T07:52:50.775Z,7.78
2019-03-30T07:55:21.711Z,8.83
2019-03-30T07:57:52.712Z,7.42
2019-03-30T08:00:27.991Z,11.20
2019-03-30T08:02:56.511Z,9.38
2019-03-30T08:05:27.456Z,9.10
2019-03-30T08:07:58.418Z,9.15
2019-03-30T08:10:29.543Z,10.20
2019-03-30T08:13:00.555Z,10.43
2019-03-30T08:15:31.562Z,10.70
2019-03-30T08:18:02.532Z,10.65
2019-03-30T08:20:33.476Z,10.60
2019-03-30T08:23:04.446Z,12.10
2019-03-30T08:25:35.394Z,10.30
2019-03-30T08:28:06.371Z,12.05
2019-03-30T08:30:37.358Z,10.05
2019-03-30T08:33:08.308Z,11.15
2019-03-30T08:35:40.400Z,18.32
2019-03-30T08:38:11.351Z,11.25
2019-03-30T08:40:42.359Z,10.38
2019-03-30T08:43:15.148Z,10.13
2019-03-30T08:45:48.755Z,11.15
2019-03-30T08:48:18.803Z,11.93
2019-03-30T08:50:50.292Z,11.75
2019-03-30T08:53:21.344Z,15.53
2019-03-30T08:55:52.321Z,12.25
2019-03-30T08:58:23.287Z,12.03
2019-03-30T09:00:54.256Z,13.88
2019-03-30T09:03:25.210Z,10.63
2019-03-30T09:05:56.293Z,12.82
2019-03-30T09:08:27.237Z,13.18
2019-03-30T09:10:58.213Z,12.73
2019-03-30T09:13:29.169Z,11.95
2019-03-30T09:16:00.144Z,27.98
2019-03-30T09:18:31.120Z,13.10
2019-03-30T09:21:02.108Z,12.55
2019-03-30T09:23:33.134Z,13.13
2019-03-30T09:26:04.126Z,11.85
2019-03-30T09:28:35.110Z,13.05
2019-03-30T09:31:06.111Z,14.70
2019-03-30T09:33:37.108Z,18.95
2019-03-30T09:36:08.148Z,13.18
2019-03-30T09:38:40.314Z,33.38
2019-03-30T09:41:11.399Z,24.63
2019-03-30T09:43:44.123Z,15.98
2019-03-30T09:46:15.078Z,13.85
2019-03-30T09:48:46.084Z,14.93
2019-03-30T09:51:17.047Z,26.15
2019-03-30T09:53:48.064Z,13.20
2019-03-30T09:56:19.083Z,14.83
2019-03-30T09:58:50.049Z,13.08
2019-03-30T10:01:21.009Z,15.10
2019-03-30T10:03:51.985Z,17.62
2019-03-30T10:06:33.797Z,19.65
2019-03-30T10:08:55.686Z,16.07
2019-03-30T10:11:26.664Z,17.40
2019-03-30T10:13:57.656Z,20.17
2019-03-30T10:16:28.620Z,20.07
2019-03-30T10:18:59.597Z,34.80
2019-03-30T10:21:30.582Z,15.03
2019-03-30T10:24:01.571Z,15.97
2019-03-30T10:26:33.678Z,22.10
2019-03-30T10:29:04.656Z,16.30
2019-03-30T10:31:35.638Z,16.17
2019-03-30T10:34:06.602Z,15.50
2019-03-30T10:36:37.597Z,14.73
2019-03-30T10:39:09.547Z,17.20
2019-03-30T10:41:40.631Z,20.43
2019-03-30T10:44:11.738Z,15.10
2019-03-30T10:46:42.804Z,14.37
2019-03-30T10:49:13.760Z,16.80
2019-03-30T10:51:44.884Z,21.70
2019-03-30T10:54:15.821Z,15.83
2019-03-30T10:56:46.821Z,20.00
2019-03-30T10:59:17.779Z,15.73
2019-03-30T11:01:48.829Z,14.80
2019-03-30T11:04:19.993Z,15.10
2019-03-30T11:06:51.000Z,16.50
2019-03-30T11:09:21.982Z,13.30
2019-03-30T11:11:52.974Z,15.30
2019-03-30T11:14:23.958Z,15.80
2019-03-30T11:16:54.909Z,16.40
2019-03-30T11:19:25.899Z,18.30
2019-03-30T11:21:56.878Z,17.27
2019-03-30T11:24:27.908Z,19.33
2019-03-30T11:26:58.856Z,21.17
2019-03-30T11:29:29.842Z,14.43
2019-03-30T11:32:00.800Z,16.27
2019-03-30T11:34:31.783Z,15.37
2019-03-30T11:37:02.730Z,22.33
2019-03-30T11:39:33.732Z,36.60
2019-03-30T11:42:04.680Z,16.70
2019-03-30T11:44:36.215Z,19.10
2019-03-30T11:47:07.286Z,18.17
2019-03-30T11:49:38.458Z,18.87
2019-03-30T11:52:09.405Z,13.97
2019-03-30T11:54:40.465Z,17.13
2019-03-30T11:57:12.463Z,13.23
2019-03-30T11:59:44.391Z,13.73
2019-03-30T12:02:27.294Z,17.00
2019-03-30T12:04:48.052Z,16.17
2019-03-30T12:07:19.043Z,18.20
2019-03-30T12:09:49.998Z,18.30
2019-03-30T12:12:20.994Z,22.70
2019-03-30T12:14:51.968Z,18.70
2019-03-30T12:17:23.957Z,31.60
2019-03-30T12:19:54.912Z,13.20
2019-03-30T12:22:25.883Z,14.00
2019-03-30T12:24:56.910Z,25.47
2019-03-30T12:27:27.894Z,16.40
2019-03-30T12:29:58.851Z,24.10
2019-03-30T12:32:29.839Z,15.10
2019-03-30T12:35:01.800Z,13.70
2019-03-30T12:37:32.790Z,15.30
2019-03-30T12:40:03.943Z,15.60
2019-03-30T12:42:34.920Z,26.47
2019-03-30T12:45:07.887Z,24.47
2019-03-30T12:47:38.887Z,18.07
2019-03-30T12:50:10.867Z,17.43
2019-03-30T12:52:41.820Z,19.77
2019-03-30T12:55:12.900Z,17.50
2019-03-30T12:57:43.863Z,16.77
2019-03-30T13:00:15.450Z,18.10
2019-03-30T13:02:46.404Z,17.37
2019-03-30T13:05:17.379Z,18.80
2019-03-30T13:07:48.330Z,17.73
2019-03-30T13:10:19.608Z,17.73
2019-03-30T13:12:50.562Z,16.40
2019-03-30T13:15:21.551Z,16.57
2019-03-30T13:17:52.575Z,14.67
2019-03-30T13:20:23.556Z,17.87
2019-03-30T13:22:54.508Z,20.00
2019-03-30T13:25:25.588Z,17.43
2019-03-30T13:27:56.641Z,19.63
2019-03-30T13:30:28.736Z,16.47
2019-03-30T13:32:59.744Z,16.33
2019-03-30T13:35:30.725Z,17.77
2019-03-30T13:38:01.699Z,16.60
2019-03-30T13:40:32.689Z,16.30
2019-03-30T13:43:03.768Z,18.80
2019-03-30T13:45:34.741Z,24.40
2019-03-30T13:48:05.721Z,14.43
2019-03-30T13:50:36.688Z,14.37
2019-03-30T13:53:07.673Z,14.80
2019-03-30T13:55:38.643Z,17.00
2019-03-30T13:58:09.681Z,16.33
2019-03-30T14:00:40.637Z,15.60
2019-03-30T14:03:12.731Z,15.23
2019-03-30T14:05:43.695Z,14.67
2019-03-30T14:08:14.787Z,15.40
2019-03-30T14:10:45.743Z,13.80
2019-03-30T14:13:16.716Z,13.43
2019-03-30T14:15:47.666Z,14.23
2019-03-30T14:18:19.635Z,15.80
2019-03-30T14:20:50.610Z,16.40
2019-03-30T14:23:21.647Z,15.60
2019-03-30T14:25:52.701Z,16.03
2019-03-30T14:28:23.712Z,44.63
2019-03-30T14:30:54.677Z,16.40
2019-03-30T14:33:25.680Z,14.83
2019-03-30T14:35:56.678Z,15.47
2019-03-30T14:38:27.681Z,17.03
2019-03-30T14:40:58.808Z,16.57
2019-03-30T14:43:29.874Z,14.37
2019-03-30T14:46:00.861Z,15.80
2019-03-30T14:48:31.856Z,17.93
2019-03-30T14:51:02.831Z,15.50
2019-03-30T14:53:33.784Z,17.37
2019-03-30T14:56:04.770Z,15.23
2019-03-30T14:58:35.799Z,15.07
2019-03-30T15:01:07.890Z,13.77
2019-03-30T15:03:38.857Z,14.93
2019-03-30T15:06:09.892Z,15.10
2019-03-30T15:08:40.860Z,17.47
2019-03-30T15:11:11.848Z,14.73
2019-03-30T15:13:44.312Z,14.60
2019-03-30T15:16:15.330Z,15.70
2019-03-30T15:18:46.318Z,15.70
2019-03-30T15:21:17.289Z,15.40
2019-03-30T15:23:48.245Z,13.07
2019-03-30T15:26:21.908Z,13.50
2019-03-30T15:28:51.890Z,13.10
2019-03-30T15:31:22.913Z,13.10
2019-03-30T15:33:53.867Z,13.50
2019-03-30T15:36:24.851Z,14.37
2019-03-30T15:38:55.806Z,16.90
2019-03-30T15:41:27.981Z,13.37
2019-03-30T15:43:59.037Z,15.30
2019-03-30T15:46:30.013Z,15.70
2019-03-30T15:49:00.993Z,14.60
2019-03-30T15:51:32.084Z,13.63
2019-03-30T15:54:03.116Z,14.57
2019-03-30T15:56:34.063Z,14.70
2019-03-30T15:59:05.439Z,15.20
2019-03-30T16:01:36.388Z,16.90
2019-03-30T16:04:07.376Z,14.87
2019-03-30T16:06:38.318Z,16.47
2019-03-30T16:09:09.390Z,14.50
2019-03-30T16:11:40.337Z,14.10
2019-03-30T16:14:11.313Z,14.07
2019-03-30T16:16:42.272Z,16.40
2019-03-30T16:19:13.254Z,17.20
2019-03-30T16:21:44.234Z,15.90
2019-03-30T16:24:15.234Z,15.80
2019-03-30T16:26:46.263Z,21.90
2019-03-30T16:29:17.442Z,16.33
2019-03-30T16:31:48.419Z,16.80
2019-03-30T16:34:20.053Z,17.50
2019-03-30T16:36:51.198Z,18.50
2019-03-30T16:39:22.181Z,18.40
2019-03-30T16:41:53.163Z,19.70
2019-03-30T16:44:24.124Z,18.30
2019-03-30T16:46:57.440Z,18.40
2019-03-30T16:49:27.751Z,18.90
2019-03-30T16:51:58.729Z,20.07
2019-03-30T16:54:29.682Z,19.47
2019-03-30T16:57:00.657Z,19.63
2019-03-30T16:59:31.635Z,19.23
2019-03-30T17:02:02.621Z,19.20
2019-03-30T17:04:33.614Z,19.67
2019-03-30T17:07:04.715Z,17.13
2019-03-30T17:09:35.787Z,20.87
2019-03-30T17:12:06.871Z,19.60
2019-03-30T17:14:37.919Z,19.43
2019-03-30T17:17:08.918Z,21.27
2019-03-30T17:19:40.953Z,20.33
2019-03-30T17:22:11.949Z,19.47
2019-03-30T17:24:42.896Z,24.20
2019-03-30T17:27:13.912Z,25.20
2019-03-30T17:29:44.926Z,25.20
2019-03-30T17:32:16.033Z,30.87
2019-03-30T17:34:48.075Z,61.07
2019-03-30T17:37:19.132Z,61.93
2019-03-30T17:39:50.074Z,58.77
2019-03-30T17:42:21.201Z,42.10
2019-03-30T17:44:52.152Z,49.40
2019-03-30T17:47:23.151Z,52.20
2019-03-30T17:49:55.654Z,61.97
2019-03-30T17:52:28.402Z,39.37
2019-03-30T17:54:59.364Z,35.13
2019-03-30T17:57:30.532Z,30.97
2019-03-30T18:00:01.560Z,62.03
2019-03-30T18:02:32.655Z,40.23
2019-03-30T18:05:03.619Z,37.30
2019-03-30T18:07:34.613Z,63.85
2019-03-30T18:10:08.104Z,50.58
2019-03-30T18:12:39.081Z,85.57
2019-03-30T18:15:11.040Z,54.63
2019-03-30T18:17:42.027Z,61.70
2019-03-30T18:20:13.684Z,69.00
2019-03-30T18:22:44.707Z,108.05
2019-03-30T18:25:15.755Z,143.32
2019-03-30T18:27:46.775Z,70.08
2019-03-30T18:30:21.063Z,60.85
2019-03-30T18:32:53.516Z,63.25
2019-03-30T18:35:24.630Z,45.63
2019-03-30T18:37:56.118Z,30.17
2019-03-30T18:40:34.234Z,31.23
2019-03-30T18:43:05.321Z,27.62
2019-03-30T18:45:37.728Z,25.77
2019-03-30T18:48:16.599Z,25.43
2019-03-30T18:50:48.155Z,25.43
2019-03-30T18:53:19.546Z,32.17
2019-03-30T18:55:50.491Z,29.30
2019-03-30T18:58:21.475Z,30.17
2019-03-30T19:00:52.526Z,35.92
2019-03-30T19:03:23.551Z,60.65
2019-03-30T19:05:54.497Z,39.20
2019-03-30T19:08:25.479Z,30.60
2019-03-30T19:10:56.426Z,29.52
2019-03-30T19:13:27.414Z,26.57
2019-03-30T19:15:58.365Z,22.27
2019-03-30T19:18:29.407Z,22.27
2019-03-30T19:21:00.353Z,22.93
2019-03-30T19:23:32.430Z,41.10
2019-03-30T19:26:03.383Z,38.02
2019-03-30T19:28:34.356Z,41.28
2019-03-30T19:31:05.507Z,52.25
2019-03-30T19:33:36.671Z,42.23
2019-03-30T19:36:10.073Z,47.35
2019-03-30T19:38:40.305Z,40.40
2019-03-30T19:41:11.240Z,36.55
2019-03-30T19:43:42.259Z,38.85
2019-03-30T19:46:13.239Z,27.80
2019-03-30T19:48:44.212Z,31.40
2019-03-30T19:51:15.580Z,25.25
2019-03-30T19:53:46.536Z,28.60
2019-03-30T19:56:17.572Z,27.17
2019-03-30T19:58:48.570Z,27.15
2019-03-30T20:01:19.565Z,30.12
2019-03-30T20:03:50.545Z,24.95
2019-03-30T20:06:22.083Z,23.30
2019-03-30T20:08:53.135Z,21.15
2019-03-30T20:11:31.367Z,14.70
2019-03-30T20:13:59.511Z,18.27
2019-03-30T20:16:30.460Z,18.15
2019-03-30T20:19:12.152Z,19.07
2019-03-30T20:21:34.195Z,15.05
2019-03-30T20:24:05.336Z,16.90
2019-03-30T20:26:36.354Z,15.53
2019-03-30T20:29:07.327Z,14.18
2019-03-30T20:31:38.274Z,14.80
2019-03-30T20:34:09.264Z,15.23
2019-03-30T20:36:40.268Z,13.53
2019-03-30T20:39:11.537Z,13.05
2019-03-30T20:41:45.001Z,16.12
2019-03-30T20:44:17.651Z,14.78
2019-03-30T20:46:48.596Z,16.20
2019-03-30T20:49:20.652Z,15.40
2019-03-30T20:51:51.994Z,19.40
2019-03-30T20:54:22.967Z,16.25
2019-03-30T20:56:53.977Z,22.98
2019-03-30T20:59:39.013Z,25.97
2019-03-30T21:01:57.637Z,32.23
2019-03-30T21:04:28.647Z,47.73
2019-03-30T21:06:59.593Z,17.17
2019-03-30T21:09:30.568Z,19.70
2019-03-30T21:12:01.560Z,29.87
2019-03-30T21:14:32.531Z,21.60
2019-03-30T21:17:03.471Z,17.02
2019-03-30T21:19:34.448Z,19.20
2019-03-30T21:22:05.471Z,21.85
2019-03-30T21:24:37.732Z,13.00
2019-03-30T21:27:08.869Z,13.65
2019-03-30T21:29:48.501Z,14.85
2019-03-30T21:32:12.650Z,13.65
2019-03-30T21:34:43.810Z,13.32
2019-03-30T21:37:14.782Z,12.98
2019-03-30T21:39:45.844Z,22.93
2019-03-30T21:42:16.787Z,18.98
2019-03-30T21:44:47.774Z,20.17
2019-03-30T21:47:18.776Z,18.35
2019-03-30T21:49:49.949Z,18.62
2019-03-30T21:52:20.913Z,17.70
2019-03-30T21:54:52.237Z,16.52
2019-03-30T21:57:23.523Z,16.60
2019-03-30T22:00:08.699Z,14.40
2019-03-30T22:02:27.550Z,15.93
2019-03-30T22:04:58.522Z,15.30
2019-03-30T22:07:29.583Z,13.55
2019-03-30T22:10:00.803Z,17.95
2019-03-30T22:12:31.733Z,16.10
2019-03-30T22:15:03.014Z,12.60
2019-03-30T22:17:33.959Z,19.55
2019-03-30T22:20:07.134Z,13.65
2019-03-30T22:22:38.148Z,12.28
2019-03-30T22:25:09.204Z,12.50
2019-03-30T22:27:41.165Z,13.28
2019-03-30T22:30:24.034Z,11.75
2019-03-30T22:32:44.991Z,12.43
2019-03-30T22:35:15.964Z,10.75
2019-03-30T22:37:46.978Z,10.68
2019-03-30T22:40:21.297Z,11.28
2019-03-30T22:42:52.290Z,11.03
2019-03-30T22:45:26.161Z,11.08
2019-03-30T22:47:57.108Z,11.22
2019-03-30T22:50:28.076Z,10.90
2019-03-30T22:52:59.022Z,11.90
2019-03-30T22:55:29.990Z,11.88
2019-03-30T22:58:00.941Z,10.55
2019-03-30T23:00:40.537Z,11.83
2019-03-30T23:03:13.237Z,14.05
2019-03-30T23:05:44.218Z,12.05
2019-03-30T23:08:15.149Z,14.87
2019-03-30T23:10:46.161Z,17.95
2019-03-30T23:13:17.103Z,16.42
2019-03-30T23:15:48.057Z,11.65
2019-03-30T23:18:19.088Z,14.87
2019-03-30T23:20:50.070Z,12.85
2019-03-30T23:23:21.137Z,12.85
2019-03-30T23:25:52.104Z,11.38
2019-03-30T23:28:23.047Z,11.12
2019-03-30T23:30:54.879Z,11.10
2019-03-30T23:33:26.000Z,10.80
2019-03-30T23:35:57.105Z,10.80
2019-03-30T23:38:28.165Z,11.10
2019-03-30T23:40:59.245Z,11.73
2019-03-30T23:43:30.247Z,11.88
2019-03-30T23:46:01.215Z,12.55
2019-03-30T23:48:32.176Z,11.55
2019-03-30T23:51:03.191Z,13.08
2019-03-30T23:53:34.137Z,12.23
2019-03-30T23:56:08.496Z,11.35
2019-03-30T23:58:39.659Z,12.93
